Mount Sylvan, Texas
Current Conditions -  °F | °C
As of 3:53 AM on Monday 26 Jan 2015 (Local Time) from KTYR Reporting Station
Clear Clear  
Wind Chill: 36°   Ceiling: Unl
Heat Index: 41°   Visibility: 10mi
Dew Point: 29°   Wind: 8mph
Humidity: 62%   Direction: 310°NW
Pressure: 30.18"   Gusts: NA
Location:  32.5326°N, 95.4249°W
Report Text: KTYR 260953Z AUTO 31007KT 10SM CLR 05/M02 A3018 RMK AO2 SLP219 T00501017
Loading
Personal Weather Stations






























Interactive Weather Map New forecast layout! Learn more

10-Day Weather Forecast

Advertisements
Track Severe Weather on mobile